createdAt,value
2022-12-06T00:03:08.968Z,79.27
2022-12-06T00:08:31.050Z,79.04
2022-12-06T00:14:04.423Z,79.03
2022-12-06T00:19:26.441Z,78.86
2022-12-06T00:24:48.272Z,79.61
2022-12-06T00:30:10.617Z,79.48
2022-12-06T00:35:32.534Z,79.83
2022-12-06T00:41:01.798Z,79.79
2022-12-06T00:46:26.433Z,80.07
2022-12-06T00:51:48.555Z,80.14
2022-12-06T00:57:10.584Z,80.36
2022-12-06T01:02:32.114Z,80.43
2022-12-06T01:07:54.508Z,80.60
2022-12-06T01:13:16.167Z,80.94
2022-12-06T01:18:38.584Z,81.07
2022-12-06T01:24:00.529Z,81.40
2022-12-06T01:29:22.655Z,81.65
2022-12-06T01:34:45.390Z,81.64
2022-12-06T01:40:08.025Z,81.82
2022-12-06T01:45:30.152Z,81.83
2022-12-06T01:50:56.703Z,82.02
2022-12-06T01:56:19.329Z,82.07
2022-12-06T02:01:41.860Z,81.91
2022-12-06T02:07:04.091Z,81.98
2022-12-06T02:12:25.718Z,82.20
2022-12-06T02:17:57.404Z,82.35
2022-12-06T02:23:54.775Z,82.43
2022-12-06T02:29:51.288Z,82.28
2022-12-06T02:35:19.728Z,82.52
2022-12-06T02:40:49.497Z,82.34
2022-12-06T02:46:12.474Z,82.26
2022-12-06T02:51:36.366Z,82.73
2022-12-06T02:56:58.192Z,82.82
2022-12-06T03:02:20.389Z,82.68
2022-12-06T03:07:46.143Z,82.86
2022-12-06T03:13:30.274Z,82.81
2022-12-06T03:19:03.870Z,83.09
2022-12-06T03:24:28.182Z,82.93
2022-12-06T03:29:53.925Z,82.35
2022-12-06T03:35:20.877Z,81.70
2022-12-06T03:40:45.811Z,81.43
2022-12-06T03:46:12.734Z,81.26
2022-12-06T03:51:36.492Z,81.55
2022-12-06T03:56:58.325Z,81.42
2022-12-06T04:02:19.952Z,81.47
2022-12-06T04:07:42.029Z,81.09
2022-12-06T04:13:06.030Z,81.20
2022-12-06T04:18:28.600Z,80.84
2022-12-06T04:23:52.003Z,80.28
2022-12-06T04:29:32.689Z,80.01
2022-12-06T04:35:13.235Z,79.97
2022-12-06T04:40:35.138Z,79.64
2022-12-06T04:45:57.039Z,79.90
2022-12-06T04:51:20.268Z,79.90
2022-12-06T04:56:41.796Z,79.83
2022-12-06T05:02:03.440Z,79.61
2022-12-06T05:07:25.454Z,79.75
2022-12-06T05:12:47.081Z,79.75
2022-12-06T05:18:08.909Z,80.35
2022-12-06T05:23:30.941Z,80.08
2022-12-06T05:28:53.985Z,80.27
2022-12-06T05:34:16.014Z,80.54
2022-12-06T05:39:37.528Z,80.17
2022-12-06T05:44:59.459Z,79.77
2022-12-06T05:50:21.054Z,80.36
2022-12-06T05:55:44.020Z,80.49
2022-12-06T06:01:06.915Z,80.00
2022-12-06T06:06:28.984Z,80.55
2022-12-06T06:11:51.014Z,80.36
2022-12-06T06:17:13.644Z,79.89
2022-12-06T06:22:36.978Z,80.33
2022-12-06T06:27:58.708Z,80.54
2022-12-06T06:33:21.439Z,79.77
2022-12-06T06:38:43.296Z,80.40
2022-12-06T06:44:05.198Z,81.11
2022-12-06T06:49:27.059Z,80.34
2022-12-06T06:54:49.085Z,80.00
2022-12-06T07:00:11.841Z,80.34
2022-12-06T07:05:33.719Z,80.89
2022-12-06T07:10:55.952Z,81.36
2022-12-06T07:16:18.463Z,81.60
2022-12-06T07:21:40.616Z,81.61
2022-12-06T07:27:02.840Z,81.71
2022-12-06T07:32:24.870Z,81.88
2022-12-06T07:37:47.518Z,82.03
2022-12-06T07:43:29.206Z,81.98
2022-12-06T07:48:51.483Z,81.91
2022-12-06T07:54:14.264Z,82.02
2022-12-06T07:59:36.097Z,81.68
2022-12-06T08:04:58.832Z,81.29
2022-12-06T08:10:21.084Z,81.33
2022-12-06T08:15:42.706Z,81.42
2022-12-06T08:21:04.976Z,80.99
2022-12-06T08:26:27.042Z,80.96
2022-12-06T08:31:48.981Z,81.06
2022-12-06T08:37:12.108Z,80.69
2022-12-06T08:42:34.136Z,80.61
2022-12-06T08:47:56.167Z,80.74
2022-12-06T08:53:18.203Z,81.01
2022-12-06T08:58:40.225Z,80.71
2022-12-06T09:04:03.309Z,80.35
2022-12-06T09:09:25.589Z,80.08
2022-12-06T09:14:47.217Z,79.60
2022-12-06T09:20:10.239Z,79.91
2022-12-06T09:25:32.483Z,79.33
2022-12-06T09:30:54.230Z,78.99
2022-12-06T09:36:26.785Z,79.08
2022-12-06T09:42:14.928Z,79.05
2022-12-06T09:47:46.058Z,78.67
2022-12-06T09:53:20.665Z,78.41
2022-12-06T09:59:10.659Z,78.65
2022-12-06T10:04:42.434Z,78.80
2022-12-06T10:10:13.348Z,78.30
2022-12-06T10:15:44.146Z,78.47
2022-12-06T10:21:38.232Z,78.07
2022-12-06T10:27:10.126Z,78.21
2022-12-06T10:32:54.863Z,77.96
2022-12-06T10:38:22.654Z,77.87
2022-12-06T10:43:44.741Z,77.82
2022-12-06T10:49:27.944Z,77.90
2022-12-06T10:55:02.722Z,77.06
2022-12-06T11:00:26.558Z,77.01
2022-12-06T11:05:53.803Z,76.96
2022-12-06T11:11:18.947Z,77.80
2022-12-06T11:16:54.744Z,78.18
2022-12-06T11:22:32.270Z,78.44
2022-12-06T11:28:26.950Z,77.90
2022-12-06T11:33:48.835Z,78.29
2022-12-06T11:39:13.820Z,78.44
2022-12-06T11:44:50.128Z,78.03
2022-12-06T11:50:17.313Z,78.11
2022-12-06T11:55:47.668Z,77.99
2022-12-06T12:01:13.612Z,78.13
2022-12-06T12:06:36.983Z,78.42
2022-12-06T12:12:05.797Z,77.99
2022-12-06T12:17:31.680Z,78.24
2022-12-06T12:23:09.667Z,77.77
2022-12-06T12:28:33.100Z,77.49
2022-12-06T12:34:20.829Z,77.44
2022-12-06T12:39:51.925Z,77.30
2022-12-06T12:45:19.630Z,77.05
2022-12-06T12:50:52.831Z,77.23
2022-12-06T12:56:22.035Z,77.33
2022-12-06T13:01:48.357Z,77.19
2022-12-06T13:07:10.229Z,77.44
2022-12-06T13:12:51.025Z,77.41
2022-12-06T13:18:58.214Z,77.34
2022-12-06T13:24:26.735Z,77.84
2022-12-06T13:30:17.699Z,77.77
2022-12-06T13:35:43.577Z,77.85
2022-12-06T13:41:36.109Z,78.10
2022-12-06T13:47:26.528Z,77.98
2022-12-06T13:52:48.334Z,78.10
2022-12-06T13:58:10.164Z,78.39
2022-12-06T14:03:31.699Z,78.29
2022-12-06T14:08:54.720Z,77.97
2022-12-06T14:14:20.295Z,78.35
2022-12-06T14:19:45.413Z,78.28
2022-12-06T14:25:19.233Z,78.32
2022-12-06T14:30:43.862Z,78.71
2022-12-06T14:36:14.178Z,78.50
2022-12-06T14:42:00.191Z,78.47
2022-12-06T14:47:23.341Z,78.29
2022-12-06T14:52:56.747Z,77.96
2022-12-06T14:58:22.561Z,77.85
2022-12-06T15:03:44.757Z,77.83
2022-12-06T15:09:14.723Z,77.75
2022-12-06T15:14:39.565Z,77.18
2022-12-06T15:20:08.931Z,77.23
2022-12-06T15:25:30.762Z,76.83
2022-12-06T15:30:53.220Z,76.51
2022-12-06T15:36:24.484Z,76.82
2022-12-06T15:41:46.675Z,76.72
2022-12-06T15:47:11.009Z,76.78
2022-12-06T15:52:32.854Z,76.98
2022-12-06T15:57:54.767Z,76.89
2022-12-06T16:03:16.720Z,76.89
2022-12-06T16:08:39.028Z,76.47
2022-12-06T16:14:00.813Z,76.41
2022-12-06T16:19:22.451Z,76.35
2022-12-06T16:24:46.252Z,76.43
2022-12-06T16:30:12.167Z,76.16
2022-12-06T16:35:34.294Z,76.13
2022-12-06T16:40:59.679Z,76.04
2022-12-06T16:46:28.476Z,76.27
2022-12-06T16:51:51.425Z,76.04
2022-12-06T16:57:14.639Z,76.35
2022-12-06T17:02:36.515Z,76.33
2022-12-06T17:07:58.757Z,76.19
2022-12-06T17:13:20.343Z,76.38
2022-12-06T17:18:41.978Z,75.91
2022-12-06T17:24:04.677Z,75.75
2022-12-06T17:29:26.933Z,75.47
2022-12-06T17:34:48.863Z,75.50
2022-12-06T17:40:11.273Z,75.58
2022-12-06T17:45:32.999Z,75.36
2022-12-06T17:50:54.933Z,75.39
2022-12-06T17:56:30.330Z,75.58
2022-12-06T18:07:35.508Z,75.48
2022-12-06T18:13:01.314Z,75.66
2022-12-06T18:18:24.540Z,75.60
2022-12-06T18:24:13.164Z,75.66
2022-12-06T18:29:29.177Z,75.58
2022-12-06T18:34:51.301Z,75.79
2022-12-06T18:40:13.132Z,75.67
2022-12-06T18:45:35.327Z,75.47
2022-12-06T18:50:57.712Z,75.65
2022-12-06T18:56:22.431Z,75.68
2022-12-06T19:01:45.041Z,75.92
2022-12-06T19:07:06.912Z,75.97
2022-12-06T19:12:28.821Z,76.16
2022-12-06T19:17:51.755Z,76.24
2022-12-06T19:23:14.052Z,76.00
2022-12-06T19:28:38.544Z,75.88
2022-12-06T19:34:00.891Z,75.78
2022-12-06T19:39:24.196Z,75.95
2022-12-06T19:44:46.124Z,75.85
2022-12-06T19:50:08.760Z,76.21
2022-12-06T19:55:31.174Z,75.77
2022-12-06T20:00:53.565Z,75.96
2022-12-06T20:06:21.427Z,75.99
2022-12-06T20:12:02.935Z,75.88
2022-12-06T20:17:25.162Z,75.72
2022-12-06T20:22:47.523Z,75.78
2022-12-06T20:28:13.474Z,75.92
2022-12-06T20:33:35.595Z,75.75
2022-12-06T20:38:58.137Z,75.90
2022-12-06T20:44:20.899Z,76.28
2022-12-06T20:49:43.189Z,76.07
2022-12-06T20:55:05.921Z,76.54
2022-12-06T21:00:27.951Z,76.75
2022-12-06T21:05:55.138Z,76.82
2022-12-06T21:11:23.342Z,77.03
2022-12-06T21:16:45.782Z,76.79
2022-12-06T21:22:09.419Z,76.90
2022-12-06T21:27:31.278Z,76.98
2022-12-06T21:32:52.975Z,77.09
2022-12-06T21:38:16.007Z,76.86
2022-12-06T21:43:38.438Z,77.16
2022-12-06T21:49:00.970Z,77.25
2022-12-06T21:54:22.706Z,77.51
2022-12-06T21:59:44.530Z,77.51
2022-12-06T22:05:06.358Z,77.88
2022-12-06T22:10:28.388Z,77.61
2022-12-06T22:15:50.282Z,77.68
2022-12-06T22:21:18.471Z,77.66
2022-12-06T22:26:40.002Z,77.76
2022-12-06T22:32:01.799Z,77.64
2022-12-06T22:37:28.346Z,77.90
2022-12-06T22:42:50.601Z,77.81
2022-12-06T22:48:12.230Z,77.95
2022-12-06T22:53:34.058Z,77.92
2022-12-06T22:58:58.103Z,77.74
2022-12-06T23:04:20.083Z,77.66
2022-12-06T23:09:42.456Z,77.60
2022-12-06T23:15:05.325Z,77.57
2022-12-06T23:20:26.918Z,77.48
2022-12-06T23:25:49.198Z,77.34
2022-12-06T23:31:13.554Z,77.38
2022-12-06T23:36:36.368Z,77.45
2022-12-06T23:41:59.253Z,77.35
2022-12-06T23:47:21.078Z,77.11
2022-12-06T23:52:43.010Z,77.19
2022-12-06T23:58:05.091Z,77.04
